Time;durP1;ratioP1;P1;durP2;ratioP2;P2;SDS_P1;SDS_P2;PMS_P1;PMS_P2;Temp;Humidity;BMP_temperature;BMP_pressure;BME280_temperature;BME280_humidity;BME280_pressure;Samples;Min_cycle;Max_cycle;Signal;HPM_P1;HPM_P2
2023/03/27 00:00:59;;;;;;;0.80;0.80;;;8.90;99.90;;;;;;5096557;28;20271;-79
2023/03/27 00:03:27;;;;;;;0.67;0.67;;;8.90;99.90;;;;;;5077896;28;20180;-78
2023/03/27 00:06:08;;;;;;;1.70;0.70;;;8.90;99.90;;;;;;5095148;28;20202;-79
2023/03/27 00:08:37;;;;;;;0.83;0.80;;;8.80;99.90;;;;;;5097106;28;20173;-79
2023/03/27 00:11:04;;;;;;;1.00;1.00;;;8.70;99.90;;;;;;5095646;28;20223;-79
2023/03/27 00:13:30;;;;;;;0.80;0.80;;;8.60;99.90;;;;;;5095750;28;20213;-78
2023/03/27 00:15:58;;;;;;;2.00;0.83;;;8.60;99.90;;;;;;5077372;28;20229;-79
2023/03/27 00:18:26;;;;;;;0.70;0.70;;;8.70;99.90;;;;;;5095874;28;20180;-78
2023/03/27 00:20:53;;;;;;;0.73;0.73;;;8.70;99.90;;;;;;5095900;28;20270;-77
2023/03/27 00:23:19;;;;;;;1.80;1.17;;;8.70;99.90;;;;;;5096082;28;20168;-77
2023/03/27 00:25:47;;;;;;;1.10;1.10;;;8.50;99.90;;;;;;5095637;28;20172;-77
2023/03/27 00:28:14;;;;;;;1.10;1.10;;;8.40;99.90;;;;;;5076960;28;20181;-78
2023/03/27 00:30:41;;;;;;;1.27;1.27;;;8.30;99.90;;;;;;5094814;28;20256;-77
2023/03/27 00:33:09;;;;;;;1.50;1.50;;;8.30;99.90;;;;;;5095081;28;20185;-78
2023/03/27 00:35:35;;;;;;;1.47;1.37;;;8.30;99.90;;;;;;5094852;28;20236;-79
2023/03/27 00:38:01;;;;;;;1.87;1.77;;;8.20;99.90;;;;;;5077214;28;20256;-76
2023/03/27 00:40:27;;;;;;;1.30;1.30;;;8.20;99.90;;;;;;5095264;28;20707;-80
2023/03/27 00:42:56;;;;;;;1.90;1.80;;;8.30;99.90;;;;;;5095048;28;20612;-81
2023/03/27 00:45:29;;;;;;;1.53;1.47;;;8.20;99.90;;;;;;5094257;28;20217;-79
2023/03/27 00:48:02;;;;;;;1.80;1.70;;;8.30;99.90;;;;;;5094592;28;20233;-79
2023/03/27 00:50:35;;;;;;;1.97;1.73;;;8.20;99.90;;;;;;5094694;28;20161;-78
2023/03/27 00:53:12;;;;;;;1.73;1.73;;;8.10;99.90;;;;;;5094794;28;20676;-78
2023/03/27 00:55:42;;;;;;;1.33;1.33;;;8.10;99.90;;;;;;5094170;28;20646;-77
2023/03/27 00:58:25;;;;;;;1.53;1.53;;;8.10;99.90;;;;;;5095119;28;20228;-77
2023/03/27 01:00:53;;;;;;;1.40;1.40;;;8.10;99.90;;;;;;5094579;28;20193;-79
2023/03/27 01:03:20;;;;;;;1.30;1.30;;;8.10;99.90;;;;;;5095009;28;20185;-79
2023/03/27 01:05:47;;;;;;;1.00;1.00;;;8.20;99.90;;;;;;5094125;28;20251;-79
2023/03/27 01:08:15;;;;;;;1.20;1.20;;;8.20;99.90;;;;;;5095108;28;20169;-80
2023/03/27 01:10:56;;;;;;;0.90;0.90;;;8.20;99.90;;;;;;5076496;28;20181;-79
2023/03/27 01:14:00;;;;;;;0.90;0.90;;;8.10;99.90;;;;;;5094665;28;20171;-78
2023/03/27 01:16:38;;;;;;;1.00;1.00;;;8.20;99.90;;;;;;5055437;28;20187;-79
2023/03/27 01:19:30;;;;;;;1.07;1.07;;;8.30;99.90;;;;;;5094802;28;20682;-77
2023/03/27 01:22:14;;;;;;;0.80;0.80;;;8.40;99.90;;;;;;5076044;28;20199;-77
2023/03/27 01:24:58;;;;;;;0.90;0.90;;;8.30;99.90;;;;;;5094061;28;20252;-79
2023/03/27 01:28:03;;;;;;;1.03;1.03;;;8.30;99.90;;;;;;5093783;28;20168;-79
2023/03/27 01:30:47;;;;;;;0.90;0.90;;;8.30;99.90;;;;;;5093906;28;20169;-78
2023/03/27 01:33:28;;;;;;;0.90;0.90;;;8.20;99.90;;;;;;5094046;28;20243;-79
2023/03/27 01:36:00;;;;;;;1.10;1.10;;;8.20;99.90;;;;;;5093518;28;20194;-78
2023/03/27 01:38:55;;;;;;;1.23;1.17;;;8.30;99.90;;;;;;5093839;28;20178;-78
2023/03/27 01:41:28;;;;;;;1.53;1.47;;;8.30;99.90;;;;;;5093709;28;20243;-78
2023/03/27 01:44:15;;;;;;;1.57;1.57;;;8.20;99.90;;;;;;5093887;28;20196;-78
2023/03/27 01:46:52;;;;;;;1.97;1.87;;;8.30;99.90;;;;;;5093145;28;20543;-78
2023/03/27 01:49:26;;;;;;;1.63;1.63;;;8.30;99.90;;;;;;5093456;28;20164;-77
2023/03/27 01:51:58;;;;;;;1.77;1.70;;;8.30;99.90;;;;;;5094088;28;20168;-79
2023/03/27 01:54:34;;;;;;;2.17;2.07;;;8.30;99.90;;;;;;5094775;28;20170;-78
2023/03/27 01:57:23;;;;;;;2.20;2.10;;;8.20;99.90;;;;;;5093827;28;20536;-77
2023/03/27 01:59:57;;;;;;;1.83;1.73;;;8.20;99.90;;;;;;5094503;28;20209;-78
2023/03/27 02:02:32;;;;;;;2.37;2.20;;;8.30;99.90;;;;;;5092351;28;20233;-78
2023/03/27 02:05:04;;;;;;;2.10;2.00;;;8.30;99.90;;;;;;5093479;28;20180;-78
2023/03/27 02:07:37;;;;;;;2.33;2.23;;;8.40;99.90;;;;;;5096107;28;20170;-76
2023/03/27 02:10:11;;;;;;;2.13;2.03;;;8.40;99.90;;;;;;5093700;28;20497;-79
2023/03/27 02:12:44;;;;;;;1.93;1.83;;;8.40;99.90;;;;;;5093333;28;20161;-78
2023/03/27 02:15:21;;;;;;;2.03;1.90;;;8.40;99.90;;;;;;5092351;28;20181;-77
2023/03/27 02:18:03;;;;;;;2.00;1.90;;;8.30;99.90;;;;;;5091610;28;20176;-78
2023/03/27 02:20:30;;;;;;;2.50;2.30;;;8.40;99.90;;;;;;5092140;28;20220;-78
2023/03/27 02:22:59;;;;;;;2.20;2.00;;;8.50;99.90;;;;;;5091965;28;20211;-77
2023/03/27 02:25:38;;;;;;;2.23;1.83;;;8.40;99.90;;;;;;5093745;28;20178;-79
2023/03/27 02:28:29;;;;;;;2.57;1.90;;;8.50;99.90;;;;;;5091998;28;20188;-78
2023/03/27 02:31:08;;;;;;;2.03;1.93;;;8.50;99.90;;;;;;5092921;28;20236;-79
2023/03/27 02:34:01;;;;;;;2.10;2.00;;;8.50;99.90;;;;;;5093291;28;20205;-77
2023/03/27 02:36:53;;;;;;;1.70;1.70;;;8.50;99.90;;;;;;5092591;28;20244;-78
2023/03/27 02:39:33;;;;;;;1.83;1.83;;;8.50;99.90;;;;;;5093281;28;20513;-77
2023/03/27 02:42:14;;;;;;;1.70;1.70;;;8.40;99.90;;;;;;5091611;28;20649;-78
2023/03/27 02:44:51;;;;;;;1.90;1.80;;;8.30;99.90;;;;;;5092299;28;20219;-77
2023/03/27 02:47:31;;;;;;;1.70;1.60;;;8.30;99.90;;;;;;5092069;28;20217;-77
2023/03/27 02:50:18;;;;;;;1.90;1.80;;;8.40;99.90;;;;;;5092403;28;20171;-81
2023/03/27 02:52:50;;;;;;;1.83;1.73;;;8.40;99.90;;;;;;5092536;28;20232;-77
2023/03/27 02:55:20;;;;;;;1.60;1.60;;;8.40;99.90;;;;;;5092173;28;20154;-77
2023/03/27 02:57:50;;;;;;;1.70;1.60;;;8.40;99.90;;;;;;5092044;28;20174;-80
2023/03/27 03:00:25;;;;;;;1.70;1.60;;;8.50;99.90;;;;;;5073832;28;20202;-80
2023/03/27 03:03:09;;;;;;;1.70;1.60;;;8.50;99.90;;;;;;5092160;28;20149;-80
2023/03/27 03:05:38;;;;;;;1.13;1.13;;;8.60;99.90;;;;;;5091970;28;20300;-77
2023/03/27 03:08:08;;;;;;;1.17;1.13;;;8.50;99.90;;;;;;5063652;28;20227;-78
2023/03/27 03:10:44;;;;;;;0.80;0.80;;;8.60;99.90;;;;;;5098973;28;20193;-80
2023/03/27 03:13:10;;;;;;;0.60;0.60;;;8.50;99.90;;;;;;5098849;28;20183;-78
2023/03/27 03:15:36;;;;;;;0.73;0.73;;;8.60;99.90;;;;;;5098682;28;20209;-80
2023/03/27 03:18:02;;;;;;;0.80;0.80;;;8.60;99.90;;;;;;5098613;28;20514;-78
2023/03/27 03:20:28;;;;;;;0.50;0.50;;;8.80;99.90;;;;;;5098835;28;20334;-78
2023/03/27 03:22:56;;;;;;;0.57;0.57;;;8.70;99.90;;;;;;5098807;28;20170;-77
2023/03/27 03:25:24;;;;;;;0.60;0.60;;;8.50;99.90;;;;;;5080381;28;20813;-78
2023/03/27 03:27:56;;;;;;;1.30;0.50;;;8.60;99.90;;;;;;5098638;28;20174;-78
2023/03/27 03:30:26;;;;;;;0.47;0.47;;;8.50;99.90;;;;;;5098956;28;20230;-79
2023/03/27 03:32:53;;;;;;;0.40;0.40;;;8.50;99.90;;;;;;5098823;28;20176;-78
2023/03/27 03:35:21;;;;;;;0.30;0.30;;;8.50;99.90;;;;;;5098557;28;20255;-80
2023/03/27 03:37:47;;;;;;;0.30;0.30;;;8.40;99.90;;;;;;5100153;28;20181;-78
2023/03/27 03:40:13;;;;;;;1.03;0.60;;;8.50;99.90;;;;;;5098596;28;20225;-80
2023/03/27 03:42:50;;;;;;;0.20;0.20;;;8.50;99.90;;;;;;5098852;28;20641;-77
2023/03/27 03:45:16;;;;;;;0.20;0.20;;;8.40;99.90;;;;;;5098689;28;20231;-78
2023/03/27 03:47:43;;;;;;;0.50;0.50;;;8.50;99.90;;;;;;5098837;28;20181;-77
2023/03/27 03:50:10;;;;;;;0.30;0.30;;;8.60;99.90;;;;;;5098533;28;20179;-78
2023/03/27 03:52:36;;;;;;;0.40;0.40;;;8.60;99.90;;;;;;5080449;28;20534;-78
2023/03/27 03:55:05;;;;;;;0.30;0.30;;;8.60;99.90;;;;;;5098664;28;20204;-78
2023/03/27 03:57:31;;;;;;;0.43;0.43;;;8.50;99.90;;;;;;5098668;28;20180;-78
2023/03/27 03:59:57;;;;;;;0.30;0.30;;;8.50;99.90;;;;;;5097905;28;20236;-79
2023/03/27 04:02:29;;;;;;;0.30;0.30;;;8.50;99.90;;;;;;5098942;28;20212;-78
2023/03/27 04:04:56;;;;;;;0.30;0.30;;;8.50;99.90;;;;;;5081527;28;20171;-78
2023/03/27 04:07:23;;;;;;;0.40;0.40;;;8.60;99.90;;;;;;5099536;28;20648;-79
2023/03/27 04:09:49;;;;;;;0.30;0.30;;;8.70;99.90;;;;;;5098109;28;20494;-77
2023/03/27 04:12:16;;;;;;;0.20;0.20;;;8.70;99.90;;;;;;5098385;28;20174;-78
2023/03/27 04:14:42;;;;;;;0.20;0.20;;;8.70;99.90;;;;;;5098107;28;20178;-77
2023/03/27 04:17:10;;;;;;;0.40;0.40;;;8.60;99.90;;;;;;5098230;28;20208;-79
2023/03/27 04:19:36;;;;;;;0.40;0.40;;;8.60;99.90;;;;;;5093736;28;20215;-77
2023/03/27 04:22:03;;;;;;;0.30;0.30;;;8.60;99.90;;;;;;5095093;28;20264;-79
2023/03/27 04:24:32;;;;;;;0.60;0.40;;;8.60;99.90;;;;;;5095080;28;20173;-79
2023/03/27 04:27:00;;;;;;;0.30;0.30;;;8.60;99.90;;;;;;5094724;28;20226;-76
2023/03/27 04:29:29;;;;;;;0.20;0.20;;;8.60;99.90;;;;;;5094736;28;20191;-78
2023/03/27 04:31:56;;;;;;;0.23;0.23;;;8.60;99.90;;;;;;5095042;28;20229;-78
2023/03/27 04:34:22;;;;;;;0.33;0.33;;;8.70;99.90;;;;;;5094925;28;20503;-79
2023/03/27 04:36:49;;;;;;;0.30;0.30;;;8.70;99.90;;;;;;5094555;28;20232;-78
2023/03/27 04:39:16;;;;;;;0.63;0.23;;;8.70;99.90;;;;;;5094734;28;20654;-78
2023/03/27 04:41:47;;;;;;;0.30;0.30;;;8.70;99.90;;;;;;5094689;28;20207;-78
2023/03/27 04:44:16;;;;;;;0.40;0.40;;;8.80;99.90;;;;;;5094493;28;20298;-77
2023/03/27 04:46:49;;;;;;;0.33;0.33;;;8.80;99.90;;;;;;5094645;28;20184;-79
2023/03/27 04:49:17;;;;;;;0.30;0.30;;;8.70;99.90;;;;;;5094345;28;20165;-76
2023/03/27 04:51:44;;;;;;;0.97;0.50;;;8.70;99.90;;;;;;5094665;28;20276;-77
2023/03/27 04:54:10;;;;;;;0.50;0.50;;;8.70;99.90;;;;;;5094526;28;20170;-79
2023/03/27 04:56:36;;;;;;;0.30;0.30;;;8.80;99.90;;;;;;5094252;28;20170;-77
2023/03/27 04:59:03;;;;;;;0.30;0.30;;;8.80;99.90;;;;;;5094176;28;20184;-76
2023/03/27 05:01:29;;;;;;;0.20;0.20;;;8.90;99.90;;;;;;5075923;28;20585;-79
2023/03/27 05:03:56;;;;;;;0.97;0.53;;;8.90;99.90;;;;;;5094171;28;20169;-79
2023/03/27 05:06:22;;;;;;;1.23;0.80;;;8.70;99.90;;;;;;5093882;28;20193;-76
2023/03/27 05:08:49;;;;;;;1.00;1.00;;;8.70;99.90;;;;;;5094078;28;20173;-78
2023/03/27 05:11:15;;;;;;;1.20;1.20;;;8.60;99.90;;;;;;5093905;28;20166;-77
2023/03/27 05:13:41;;;;;;;1.20;1.10;;;8.50;99.90;;;;;;5094073;28;20180;-80
2023/03/27 05:16:08;;;;;;;1.73;1.23;;;8.50;99.90;;;;;;5094198;28;20184;-78
2023/03/27 05:18:37;;;;;;;1.20;1.20;;;8.50;99.90;;;;;;5094194;28;20174;-78
2023/03/27 05:21:03;;;;;;;1.40;1.30;;;8.50;99.90;;;;;;5075591;28;20297;-79
2023/03/27 05:23:29;;;;;;;1.03;1.03;;;8.50;99.90;;;;;;5075643;28;20178;-78
2023/03/27 05:25:56;;;;;;;1.50;1.10;;;8.50;99.90;;;;;;5093810;28;20579;-80
2023/03/27 05:28:23;;;;;;;1.97;1.10;;;8.50;99.90;;;;;;5094072;28;20222;-78
2023/03/27 05:30:49;;;;;;;1.53;1.20;;;8.50;99.90;;;;;;5093831;28;20173;-78
2023/03/27 05:33:16;;;;;;;1.90;1.80;;;8.50;99.90;;;;;;5075484;28;20185;-78
2023/03/27 05:35:45;;;;;;;1.50;1.50;;;8.40;99.90;;;;;;5075416;28;20288;-79
2023/03/27 05:38:12;;;;;;;2.63;2.33;;;8.40;99.90;;;;;;5094157;28;20212;-77
2023/03/27 05:40:38;;;;;;;2.53;1.80;;;8.40;99.90;;;;;;5093429;28;20213;-78
2023/03/27 05:43:05;;;;;;;2.13;2.03;;;8.40;99.90;;;;;;5093646;28;20246;-78
2023/03/27 05:45:32;;;;;;;1.40;1.40;;;8.30;99.90;;;;;;5096628;28;20220;-77
2023/03/27 05:47:59;;;;;;;2.07;1.60;;;8.30;99.90;;;;;;5114016;28;20179;-78
2023/03/27 05:50:32;;;;;;;2.17;1.40;;;8.40;99.90;;;;;;5113736;28;20602;-78
2023/03/27 05:53:01;;;;;;;1.60;1.50;;;8.30;99.90;;;;;;5112139;28;20262;-77
2023/03/27 05:55:27;;;;;;;2.07;1.67;;;8.40;99.90;;;;;;5108480;28;20237;-79
2023/03/27 05:57:53;;;;;;;3.00;1.70;;;8.40;99.90;;;;;;5093311;28;20547;-77
2023/03/27 06:00:25;;;;;;;3.63;1.60;;;8.50;99.90;;;;;;5092851;28;20206;-79
2023/03/27 06:02:56;;;;;;;1.63;1.60;;;8.40;99.90;;;;;;5093571;28;20245;-77
2023/03/27 06:05:22;;;;;;;1.60;1.50;;;8.40;99.90;;;;;;5092972;28;20176;-80
2023/03/27 06:07:49;;;;;;;2.03;1.50;;;8.50;99.90;;;;;;5093035;28;20176;-80
2023/03/27 06:10:16;;;;;;;1.30;1.30;;;8.40;99.90;;;;;;5092783;28;20181;-77
2023/03/27 06:12:43;;;;;;;1.20;1.20;;;8.50;99.90;;;;;;5092930;28;20173;-78
2023/03/27 06:15:10;;;;;;;1.23;1.23;;;8.50;99.90;;;;;;5092659;28;20227;-79
2023/03/27 06:17:38;;;;;;;1.73;1.63;;;8.60;99.90;;;;;;5092943;28;20168;-78
2023/03/27 06:20:13;;;;;;;3.87;1.80;;;8.50;99.90;;;;;;5092529;28;20568;-78
2023/03/27 06:22:50;;;;;;;4.47;1.50;;;8.60;99.90;;;;;;5092908;28;20161;-78
2023/03/27 06:25:17;;;;;;;1.83;1.57;;;8.60;99.90;;;;;;5091228;28;20174;-76
2023/03/27 06:27:48;;;;;;;1.60;1.50;;;8.60;99.90;;;;;;5092902;28;20178;-78
2023/03/27 06:30:16;;;;;;;2.03;1.57;;;8.60;99.90;;;;;;5092711;28;20197;-78
2023/03/27 06:32:46;;;;;;;1.60;1.40;;;8.60;99.90;;;;;;5091646;28;20192;-79
2023/03/27 06:35:15;;;;;;;1.47;1.40;;;8.60;99.90;;;;;;5092561;28;20181;-79
2023/03/27 06:37:45;;;;;;;2.30;1.57;;;8.50;99.90;;;;;;5092597;28;20182;-78
2023/03/27 06:40:21;;;;;;;1.63;1.53;;;8.60;99.90;;;;;;5092506;28;20203;-79
2023/03/27 06:43:02;;;;;;;4.00;1.60;;;8.70;99.90;;;;;;5090439;28;20275;-78
2023/03/27 06:45:31;;;;;;;1.63;1.53;;;8.70;99.90;;;;;;5080141;28;20225;-78
2023/03/27 06:47:59;;;;;;;1.80;1.40;;;8.80;99.90;;;;;;5055312;28;20205;-77
2023/03/27 06:50:27;;;;;;;1.50;1.40;;;8.80;99.90;;;;;;5074004;28;20227;-81
2023/03/27 06:52:52;;;;;;;1.23;1.23;;;8.80;99.90;;;;;;5072431;28;20172;-78
2023/03/27 06:55:21;;;;;;;2.20;1.70;;;8.80;99.90;;;;;;5072062;28;20605;-79
2023/03/27 06:57:52;;;;;;;1.50;1.40;;;8.90;99.90;;;;;;5072176;28;20312;-79
2023/03/27 07:00:23;;;;;;;1.93;1.20;;;9.00;99.90;;;;;;5072353;28;20247;-78
2023/03/27 07:02:56;;;;;;;2.03;1.40;;;9.10;99.90;;;;;;5072847;28;20156;-78
2023/03/27 07:05:27;;;;;;;1.40;1.40;;;9.20;99.90;;;;;;5071964;28;20186;-77
2023/03/27 07:07:54;;;;;;;1.60;1.50;;;9.30;99.90;;;;;;5072039;28;20178;-79
2023/03/27 07:10:21;;;;;;;1.43;1.37;;;9.30;99.90;;;;;;5072006;28;20198;-79
2023/03/27 07:12:49;;;;;;;1.80;1.30;;;9.40;99.90;;;;;;5072123;28;20183;-81
2023/03/27 07:15:16;;;;;;;1.40;1.40;;;9.50;99.90;;;;;;5075888;28;20163;-80
2023/03/27 07:17:43;;;;;;;2.87;1.50;;;9.50;99.90;;;;;;5074591;28;20173;-79
2023/03/27 07:20:12;;;;;;;1.40;1.40;;;9.40;99.90;;;;;;5071965;28;20206;-77
2023/03/27 07:22:41;;;;;;;1.60;1.50;;;9.60;99.90;;;;;;5071601;28;20163;-78
2023/03/27 07:25:10;;;;;;;1.60;1.50;;;9.50;99.90;;;;;;5071658;28;20244;-78
2023/03/27 07:27:36;;;;;;;2.03;1.93;;;9.60;99.90;;;;;;5053740;28;20178;-79
2023/03/27 07:30:03;;;;;;;2.17;1.57;;;9.50;99.90;;;;;;5071408;28;20653;-77
2023/03/27 07:32:29;;;;;;;1.60;1.53;;;9.60;99.90;;;;;;5070730;28;20179;-78
2023/03/27 07:34:57;;;;;;;1.77;1.67;;;9.60;99.90;;;;;;5071595;28;20239;-78
2023/03/27 07:37:24;;;;;;;4.13;1.70;;;9.60;99.90;;;;;;5071711;28;20178;-77
2023/03/27 07:39:50;;;;;;;1.20;1.20;;;9.60;99.90;;;;;;5071432;28;20171;-77
2023/03/27 07:42:16;;;;;;;1.70;1.60;;;9.80;99.90;;;;;;5071305;28;20190;-77
2023/03/27 07:44:41;;;;;;;2.50;2.30;;;9.80;99.90;;;;;;5071472;28;20211;-79
2023/03/27 07:47:08;;;;;;;2.67;1.50;;;9.90;99.90;;;;;;5072009;28;20213;-80
2023/03/27 07:49:34;;;;;;;1.90;1.80;;;10.00;99.90;;;;;;5072074;28;20263;-77
2023/03/27 07:51:59;;;;;;;1.20;1.20;;;10.10;99.90;;;;;;5071526;28;20183;-79
2023/03/27 07:54:25;;;;;;;5.87;1.53;;;10.20;99.90;;;;;;5075096;28;20185;-79
2023/03/27 07:56:52;;;;;;;1.70;1.60;;;10.30;99.90;;;;;;5075206;28;20624;-79
2023/03/27 07:59:20;;;;;;;1.57;1.47;;;10.40;99.90;;;;;;5076352;28;20174;-79
2023/03/27 08:01:49;;;;;;;1.57;1.43;;;10.50;99.90;;;;;;5076600;28;20210;-82
2023/03/27 08:04:19;;;;;;;1.47;1.37;;;10.50;99.90;;;;;;5074988;28;20175;-78
2023/03/27 08:06:45;;;;;;;4.37;1.70;;;10.70;99.90;;;;;;5074739;28;20330;-78
2023/03/27 08:09:11;;;;;;;2.50;1.53;;;10.70;99.90;;;;;;5075387;28;20171;-80
2023/03/27 08:11:37;;;;;;;2.90;1.60;;;10.70;99.90;;;;;;5075008;28;20193;-79
2023/03/27 08:14:03;;;;;;;3.23;1.40;;;10.80;99.90;;;;;;5075200;28;20210;-79
2023/03/27 08:16:29;;;;;;;3.03;1.70;;;10.90;99.90;;;;;;5056846;28;20659;-80
2023/03/27 08:18:56;;;;;;;2.77;1.60;;;11.10;99.90;;;;;;5074933;28;20170;-80
2023/03/27 08:21:22;;;;;;;1.73;1.70;;;11.40;99.90;;;;;;5074762;28;20206;-80
2023/03/27 08:23:49;;;;;;;2.20;1.83;;;11.60;99.90;;;;;;5074626;28;20171;-80
2023/03/27 08:26:15;;;;;;;1.80;1.70;;;11.70;99.90;;;;;;5075194;28;20244;-78
2023/03/27 08:28:42;;;;;;;2.23;2.03;;;12.00;99.90;;;;;;5074812;28;20558;-77
2023/03/27 08:31:13;;;;;;;2.00;1.87;;;12.20;99.90;;;;;;5074666;28;20169;-79
2023/03/27 08:33:40;;;;;;;2.87;2.30;;;12.40;99.90;;;;;;5074495;28;20167;-78
2023/03/27 08:36:08;;;;;;;1.93;1.83;;;12.60;99.90;;;;;;5074847;28;20686;-79
2023/03/27 08:38:34;;;;;;;1.90;1.60;;;12.90;99.90;;;;;;5074586;28;20182;-78
2023/03/27 08:41:02;;;;;;;1.97;1.87;;;13.10;99.90;;;;;;5074540;28;20320;-78
2023/03/27 08:43:36;;;;;;;1.83;1.73;;;13.40;99.90;;;;;;5074199;28;20214;-78
2023/03/27 08:46:13;;;;;;;1.90;1.50;;;13.50;99.90;;;;;;5074100;28;20227;-78
2023/03/27 08:48:43;;;;;;;2.47;1.57;;;13.60;99.90;;;;;;5074242;28;20213;-78
2023/03/27 08:51:16;;;;;;;1.50;1.40;;;13.70;99.90;;;;;;5074263;28;20627;-78
2023/03/27 08:53:50;;;;;;;2.70;1.50;;;13.70;99.90;;;;;;5073949;28;20620;-78
2023/03/27 08:56:17;;;;;;;1.47;1.43;;;13.70;99.90;;;;;;5074140;28;20184;-77
2023/03/27 08:58:44;;;;;;;1.60;1.50;;;13.70;99.90;;;;;;5074184;28;20232;-78
2023/03/27 09:01:25;;;;;;;1.57;1.37;;;13.90;99.90;;;;;;5073870;28;20567;-76
2023/03/27 09:04:30;;;;;;;0.93;0.93;;;13.90;99.90;;;;;;5073569;28;20183;-79
2023/03/27 09:07:15;;;;;;;0.73;0.73;;;13.80;97.50;;;;;;5073540;28;20270;-77
2023/03/27 09:10:16;;;;;;;0.80;0.80;;;13.50;94.90;;;;;;5056560;28;20179;-79
2023/03/27 09:12:54;;;;;;;0.97;0.70;;;13.50;95.90;;;;;;4973089;28;20192;-79
2023/03/27 09:15:27;;;;;;;0.43;0.43;;;13.30;93.30;;;;;;4972348;28;20182;-78
2023/03/27 09:18:14;;;;;;;0.30;0.30;;;13.20;92.00;;;;;;4973003;28;20379;-79
2023/03/27 09:20:51;;;;;;;0.20;0.20;;;12.90;91.40;;;;;;4972647;28;20656;-77
2023/03/27 09:23:17;;;;;;;0.20;0.20;;;12.60;90.40;;;;;;4972748;28;20175;-79
2023/03/27 09:25:52;;;;;;;0.40;0.27;;;12.70;90.20;;;;;;4973009;28;20194;-77
2023/03/27 09:28:50;;;;;;;2.83;0.60;;;12.60;90.30;;;;;;4972956;28;21057;-78
2023/03/27 09:31:29;;;;;;;0.30;0.30;;;12.70;90.50;;;;;;4954019;28;20187;-78
2023/03/27 09:33:58;;;;;;;0.20;0.20;;;12.80;90.00;;;;;;4972364;28;20189;-78
2023/03/27 09:36:24;;;;;;;0.30;0.30;;;12.90;90.00;;;;;;4972293;28;20699;-79
2023/03/27 09:38:57;;;;;;;0.20;0.20;;;13.00;90.30;;;;;;4972348;28;20187;-78
2023/03/27 09:41:28;;;;;;;0.20;0.20;;;13.00;88.20;;;;;;4972299;28;20219;-78
2023/03/27 09:44:11;;;;;;;0.20;0.20;;;12.90;88.10;;;;;;4972101;28;20610;-78
2023/03/27 09:46:43;;;;;;;0.30;0.30;;;12.80;87.00;;;;;;5036338;28;20200;-78
2023/03/27 09:49:16;;;;;;;0.60;0.60;;;12.70;88.10;;;;;;5073604;28;20640;-78
2023/03/27 09:51:45;;;;;;;0.10;0.10;;;12.80;87.90;;;;;;5073301;28;20223;-78
2023/03/27 09:54:13;;;;;;;0.20;0.20;;;12.80;88.30;;;;;;5073077;28;20526;-79
2023/03/27 09:56:58;;;;;;;0.10;0.10;;;13.00;88.80;;;;;;5074322;28;20259;-78
2023/03/27 09:59:37;;;;;;;0.40;0.40;;;13.20;86.40;;;;;;5073918;28;20510;-77
2023/03/27 10:02:22;;;;;;;0.20;0.20;;;13.20;87.00;;;;;;5073026;28;20721;-78
2023/03/27 10:05:10;;;;;;;1.83;0.20;;;13.00;86.90;;;;;;5072664;28;20194;-79
2023/03/27 10:07:38;;;;;;;0.23;0.23;;;13.00;87.40;;;;;;5072711;28;20159;-78
2023/03/27 10:10:10;;;;;;;0.27;0.27;;;13.10;86.60;;;;;;5073487;28;20171;-78
2023/03/27 10:12:37;;;;;;;0.30;0.30;;;13.10;87.10;;;;;;5073796;28;20194;-79
2023/03/27 10:15:25;;;;;;;0.40;0.30;;;13.40;87.80;;;;;;5072157;28;20177;-76
2023/03/27 10:17:51;;;;;;;0.20;0.20;;;13.50;87.10;;;;;;5071727;28;20270;-78
2023/03/27 10:20:19;;;;;;;0.30;0.30;;;13.30;86.60;;;;;;5072532;28;20309;-77
2023/03/27 10:22:54;;;;;;;0.30;0.30;;;13.30;86.80;;;;;;5072457;28;20177;-79
2023/03/27 10:25:47;;;;;;;0.20;0.20;;;13.10;85.90;;;;;;5072003;28;20163;-78
2023/03/27 10:28:27;;;;;;;0.20;0.20;;;12.90;86.40;;;;;;5071154;28;20184;-77
2023/03/27 10:31:02;;;;;;;0.30;0.30;;;12.50;87.00;;;;;;5072353;28;20224;-79
2023/03/27 10:33:36;;;;;;;0.20;0.20;;;12.60;88.00;;;;;;5072456;28;20161;-78
2023/03/27 10:36:05;;;;;;;0.40;0.40;;;12.40;87.50;;;;;;5071786;28;20179;-77
2023/03/27 10:38:32;;;;;;;0.30;0.30;;;12.10;89.20;;;;;;5072355;28;20175;-76
2023/03/27 10:40:59;;;;;;;0.20;0.20;;;11.90;88.40;;;;;;5072157;28;20201;-78
2023/03/27 10:43:28;;;;;;;0.40;0.20;;;11.70;88.20;;;;;;5072173;28;20173;-78
2023/03/27 10:46:08;;;;;;;0.20;0.20;;;11.70;88.70;;;;;;5071490;28;20224;-78
2023/03/27 10:49:11;;;;;;;0.30;0.30;;;11.70;89.30;;;;;;5072262;28;20167;-78
2023/03/27 10:51:50;;;;;;;0.10;0.10;;;11.80;89.30;;;;;;5072116;28;20182;-77
2023/03/27 10:54:30;;;;;;;0.10;0.10;;;11.80;86.00;;;;;;5071969;28;20499;-78
2023/03/27 10:57:09;;;;;;;0.30;0.30;;;11.50;84.80;;;;;;5053688;28;20207;-76
2023/03/27 10:59:49;;;;;;;0.20;0.20;;;11.30;81.90;;;;;;5072091;28;20229;-78
2023/03/27 11:02:30;;;;;;;1.43;0.30;;;11.10;90.30;;;;;;5072338;28;20668;-77
2023/03/27 11:05:10;;;;;;;0.10;0.10;;;11.20;82.60;;;;;;5071703;28;20321;-77
2023/03/27 11:08:03;;;;;;;0.20;0.20;;;11.10;81.50;;;;;;5072020;28;20162;-77
2023/03/27 11:10:42;;;;;;;0.20;0.20;;;11.10;80.50;;;;;;5059952;28;20228;-77
2023/03/27 11:13:26;;;;;;;0.30;0.30;;;11.30;82.30;;;;;;5072095;28;20255;-80
2023/03/27 11:16:08;;;;;;;0.10;0.10;;;11.10;81.80;;;;;;5053582;28;20175;-77
2023/03/27 11:18:39;;;;;;;0.13;0.13;;;10.90;77.40;;;;;;5053794;28;20704;-81
2023/03/27 11:21:11;;;;;;;0.27;0.27;;;10.80;76.20;;;;;;5071748;28;20212;-77
2023/03/27 11:23:43;;;;;;;0.27;0.27;;;10.70;76.50;;;;;;5071732;28;20171;-79
2023/03/27 11:26:14;;;;;;;0.20;0.20;;;10.80;76.70;;;;;;5072164;28;20179;-77
2023/03/27 11:28:56;;;;;;;0.20;0.20;;;10.90;76.10;;;;;;5074188;28;20238;-78
2023/03/27 11:31:33;;;;;;;0.30;0.30;;;10.60;74.10;;;;;;5075762;28;20690;-76
2023/03/27 11:34:04;;;;;;;0.20;0.20;;;10.40;75.20;;;;;;5076062;28;20162;-78
2023/03/27 11:36:45;;;;;;;0.20;0.20;;;10.30;74.70;;;;;;5057426;28;20225;-78
2023/03/27 11:39:23;;;;;;;0.10;0.10;;;10.30;74.80;;;;;;5076030;28;20167;-78
2023/03/27 11:41:52;;;;;;;0.30;0.30;;;10.30;74.60;;;;;;5075392;28;20205;-77
2023/03/27 11:44:18;;;;;;;0.10;0.10;;;10.30;74.10;;;;;;5075622;28;20181;-79
2023/03/27 11:46:56;;;;;;;0.30;0.30;;;10.20;74.30;;;;;;5075457;28;20182;-81
2023/03/27 11:49:37;;;;;;;0.53;0.20;;;10.00;74.60;;;;;;5075475;28;20161;-78
2023/03/27 11:52:22;;;;;;;0.10;0.10;;;9.90;75.60;;;;;;5075399;28;20170;-77
2023/03/27 11:55:07;;;;;;;0.20;0.20;;;9.90;75.80;;;;;;5075680;28;20165;-79
2023/03/27 11:57:49;;;;;;;0.20;0.20;;;9.90;75.80;;;;;;5056991;28;20570;-77
2023/03/27 12:00:30;;;;;;;0.10;0.10;;;10.00;75.10;;;;;;5057002;28;20278;-78
2023/03/27 12:03:08;;;;;;;0.37;0.37;;;10.10;74.40;;;;;;5075085;28;20186;-78
2023/03/27 12:06:04;;;;;;;0.30;0.30;;;10.10;73.90;;;;;;5074932;28;20223;-78
2023/03/27 12:09:10;;;;;;;0.10;0.10;;;10.00;73.80;;;;;;5057094;28;20178;-78
2023/03/27 12:11:44;;;;;;;0.10;0.10;;;10.20;74.80;;;;;;4986096;28;20189;-79
2023/03/27 12:14:38;;;;;;;0.10;0.10;;;10.50;74.50;;;;;;5057240;28;20236;-79
2023/03/27 12:17:22;;;;;;;0.20;0.20;;;10.40;73.50;;;;;;5075845;28;20559;-78
2023/03/27 12:20:08;;;;;;;0.27;0.27;;;10.40;75.30;;;;;;5057023;28;20174;-80
2023/03/27 12:23:11;;;;;;;0.20;0.20;;;10.40;73.90;;;;;;5057022;28;20190;-78
2023/03/27 12:25:59;;;;;;;0.30;0.30;;;10.10;74.00;;;;;;5056690;28;20650;-78
2023/03/27 12:28:50;;;;;;;0.10;0.10;;;10.10;74.80;;;;;;5056736;28;20171;-78
2023/03/27 12:31:54;;;;;;;0.20;0.20;;;10.30;74.60;;;;;;5074766;28;20514;-77
2023/03/27 12:34:48;;;;;;;0.40;0.40;;;10.30;73.80;;;;;;5074588;28;20205;-77
2023/03/27 12:37:17;;;;;;;0.20;0.20;;;10.30;74.40;;;;;;5074270;28;20209;-79
2023/03/27 12:39:54;;;;;;;0.23;0.23;;;10.30;74.30;;;;;;5073566;28;20175;-79
2023/03/27 12:42:51;;;;;;;0.30;0.30;;;10.40;73.20;;;;;;5074588;28;20198;-78
2023/03/27 12:45:16;;;;;;;0.20;0.20;;;10.30;73.10;;;;;;5003631;28;20220;-79
2023/03/27 12:48:05;;;;;;;0.30;0.30;;;10.40;73.50;;;;;;5094428;28;20239;-78
2023/03/27 12:50:43;;;;;;;0.23;0.20;;;10.50;73.70;;;;;;5095178;28;20181;-77
2023/03/27 12:53:49;;;;;;;0.40;0.20;;;10.60;73.00;;;;;;5094683;28;20184;-78
2023/03/27 12:56:18;;;;;;;0.10;0.10;;;10.30;72.80;;;;;;5053650;28;20675;-80
2023/03/27 12:58:46;;;;;;;0.27;0.27;;;10.30;73.40;;;;;;5094604;28;20631;-78
2023/03/27 13:01:32;;;;;;;0.30;0.30;;;10.40;73.30;;;;;;5094399;28;20289;-79
2023/03/27 13:04:14;;;;;;;0.10;0.10;;;10.40;74.60;;;;;;5094543;28;20166;-80
2023/03/27 13:06:55;;;;;;;0.40;0.40;;;10.40;73.20;;;;;;5094148;28;20154;-78
2023/03/27 13:09:33;;;;;;;1.60;0.37;;;10.30;73.20;;;;;;5094992;28;20177;-80
2023/03/27 13:12:10;;;;;;;0.20;0.20;;;10.30;73.60;;;;;;5094450;28;20174;-79
2023/03/27 13:14:57;;;;;;;0.10;0.10;;;10.30;73.20;;;;;;5094202;28;20194;-78
2023/03/27 13:17:45;;;;;;;0.20;0.20;;;10.30;73.80;;;;;;5092580;28;20180;-78
2023/03/27 13:20:26;;;;;;;0.50;0.40;;;10.40;73.40;;;;;;5094529;28;20193;-79
2023/03/27 13:23:07;;;;;;;0.30;0.20;;;10.40;73.60;;;;;;5094208;28;20647;-79
2023/03/27 13:25:39;;;;;;;0.20;0.20;;;10.30;72.40;;;;;;5093775;28;20589;-78